Time;durP1;ratioP1;P1;durP2;ratioP2;P2;SDS_P1;SDS_P2;PMS_P1;PMS_P2;Temp;Humidity;BMP_temperature;BMP_pressure;BME280_temperature;BME280_humidity;BME280_pressure;Samples;Min_cycle;Max_cycle;Signal;HPM_P1;HPM_P2
2022/01/31 00:02:24;;;;;;;23.92;4.43;;;;;;;;;;5010824;28;20038;-54
2022/01/31 00:04:49;;;;;;;16.35;4.53;;;;;;;;;;5010955;28;20022;-58
2022/01/31 00:07:15;;;;;;;14.63;3.95;;;;;;;;;;5012184;28;20099;-58
2022/01/31 00:09:43;;;;;;;14.05;3.88;;;;;;;;;;5008979;28;20022;-56
2022/01/31 00:12:17;;;;;;;15.32;4.13;;;;;;;;;;5011208;28;20033;-56
2022/01/31 00:14:45;;;;;;;13.57;3.55;;;;;;;;;;4990463;28;20920;-57
2022/01/31 00:17:12;;;;;;;19.77;4.43;;;;;;;;;;5008095;28;20026;-58
2022/01/31 00:19:39;;;;;;;16.30;4.10;;;;;;;;;;5008533;28;20050;-58
2022/01/31 00:22:06;;;;;;;17.48;4.00;;;;;;;;;;4995668;28;20470;-58
2022/01/31 00:24:33;;;;;;;18.52;4.80;;;;;;;;;;5008401;28;20040;-57
2022/01/31 00:26:59;;;;;;;15.13;4.32;;;;;;;;;;5008610;28;20534;-58
2022/01/31 00:29:24;;;;;;;13.40;3.22;;;;;;;;;;5008386;28;20105;-59
2022/01/31 00:31:50;;;;;;;14.60;3.33;;;;;;;;;;5010476;28;20032;-59
2022/01/31 00:34:15;;;;;;;16.55;3.97;;;;;;;;;;4992994;28;20033;-58
2022/01/31 00:36:41;;;;;;;15.90;3.78;;;;;;;;;;5011289;28;20431;-58
2022/01/31 00:39:06;;;;;;;13.68;3.72;;;;;;;;;;5008374;28;20113;-58
2022/01/31 00:41:32;;;;;;;13.27;3.58;;;;;;;;;;5009591;28;20042;-58
2022/01/31 00:44:02;;;;;;;21.42;4.35;;;;;;;;;;4990863;28;20033;-55
2022/01/31 00:46:37;;;;;;;18.65;4.57;;;;;;;;;;5009881;28;20049;-58
2022/01/31 00:49:03;;;;;;;14.82;3.28;;;;;;;;;;5008409;28;20037;-58
2022/01/31 00:51:28;;;;;;;17.27;3.88;;;;;;;;;;5009652;28;20029;-53
2022/01/31 00:53:54;;;;;;;16.15;3.78;;;;;;;;;;5007656;28;20478;-55
2022/01/31 00:56:19;;;;;;;17.17;4.55;;;;;;;;;;5008600;28;20038;-56
2022/01/31 00:58:44;;;;;;;13.88;3.38;;;;;;;;;;5008273;28;20030;-58
2022/01/31 01:01:10;;;;;;;14.10;3.40;;;;;;;;;;5007942;28;20096;-57
2022/01/31 01:03:35;;;;;;;15.57;3.63;;;;;;;;;;5006216;28;20032;-57
2022/01/31 01:06:00;;;;;;;17.50;3.60;;;;;;;;;;5008107;28;20386;-56
2022/01/31 01:08:26;;;;;;;14.88;3.53;;;;;;;;;;5008769;28;20068;-58
2022/01/31 01:10:51;;;;;;;13.90;3.70;;;;;;;;;;5008693;28;20036;-58
2022/01/31 01:13:17;;;;;;;12.43;3.47;;;;;;;;;;5008773;28;20034;-57
2022/01/31 01:15:42;;;;;;;18.40;3.50;;;;;;;;;;5007048;28;20172;-57
2022/01/31 01:18:08;;;;;;;18.42;3.25;;;;;;;;;;5007230;28;20433;-58
2022/01/31 01:20:33;;;;;;;15.75;4.15;;;;;;;;;;5004710;28;20030;-59
2022/01/31 01:22:59;;;;;;;15.25;3.58;;;;;;;;;;5008180;28;20116;-58
2022/01/31 01:25:24;;;;;;;16.55;3.67;;;;;;;;;;5005740;28;20026;-58
2022/01/31 01:27:53;;;;;;;22.80;3.72;;;;;;;;;;5011819;28;20374;-58
2022/01/31 01:30:18;;;;;;;14.10;3.53;;;;;;;;;;5007982;28;20037;-52
2022/01/31 01:33:11;;;;;;;13.60;3.53;;;;;;;;;;2661818;28;10003132;-53
2022/01/31 01:35:39;;;;;;;14.98;3.58;;;;;;;;;;3623004;28;10001480;-56
2022/01/31 01:38:07;;;;;;;13.63;3.25;;;;;;;;;;5009709;28;20038;-56
2022/01/31 01:40:39;;;;;;;14.70;3.47;;;;;;;;;;5008078;28;20029;-55
2022/01/31 01:43:05;;;;;;;11.85;2.97;;;;;;;;;;5008538;28;20546;-52
2022/01/31 01:45:32;;;;;;;11.38;2.88;;;;;;;;;;5009012;28;20033;-58
2022/01/31 01:47:58;;;;;;;13.65;3.92;;;;;;;;;;5007408;28;20038;-55
2022/01/31 01:50:23;;;;;;;20.02;3.50;;;;;;;;;;5008818;28;20037;-58
2022/01/31 01:52:50;;;;;;;12.50;2.85;;;;;;;;;;4990490;28;20022;-56
2022/01/31 01:55:16;;;;;;;16.80;2.97;;;;;;;;;;5010374;28;20179;-56
2022/01/31 01:57:42;;;;;;;18.77;3.53;;;;;;;;;;5010087;28;20101;-52
2022/01/31 02:00:15;;;;;;;14.40;3.25;;;;;;;;;;5009503;28;20104;-60
2022/01/31 02:02:43;;;;;;;16.17;3.33;;;;;;;;;;5005618;28;20034;-60
2022/01/31 02:05:09;;;;;;;13.07;3.05;;;;;;;;;;5006876;28;20057;-59
2022/01/31 02:07:34;;;;;;;14.45;3.30;;;;;;;;;;4996930;28;20037;-60
2022/01/31 02:10:04;;;;;;;13.43;2.90;;;;;;;;;;5004718;28;20116;-56
2022/01/31 02:12:42;;;;;;;17.02;3.38;;;;;;;;;;5009673;28;20117;-59
2022/01/31 02:15:10;;;;;;;13.85;3.03;;;;;;;;;;5007716;28;20026;-60
2022/01/31 02:17:37;;;;;;;13.82;3.10;;;;;;;;;;5008289;28;20065;-60
2022/01/31 02:20:08;;;;;;;12.30;2.92;;;;;;;;;;4990103;28;20046;-60
2022/01/31 02:22:50;;;;;;;7.03;2.43;;;;;;;;;;1848368;28;10023647;-55
2022/01/31 02:25:16;;;;;;;11.10;3.53;;;;;;;;;;3971458;28;10001253;-60
2022/01/31 02:27:43;;;;;;;11.55;2.85;;;;;;;;;;5008119;28;20033;-60
2022/01/31 02:30:13;;;;;;;8.20;2.58;;;;;;;;;;5010725;28;20034;-56
2022/01/31 02:32:39;;;;;;;12.10;2.50;;;;;;;;;;5006275;28;20025;-59
2022/01/31 02:35:06;;;;;;;10.80;2.35;;;;;;;;;;5011771;28;20045;-60
2022/01/31 02:37:31;;;;;;;10.52;2.30;;;;;;;;;;5007733;28;20038;-60
2022/01/31 02:39:57;;;;;;;11.38;2.65;;;;;;;;;;5012461;28;20021;-57
2022/01/31 02:42:23;;;;;;;11.35;2.70;;;;;;;;;;5011750;28;20036;-60
2022/01/31 02:44:49;;;;;;;9.80;2.47;;;;;;;;;;5010690;28;20497;-59
2022/01/31 02:47:23;;;;;;;11.32;2.65;;;;;;;;;;5012697;28;20060;-60
2022/01/31 02:52:20;;;;;;;11.18;2.10;;;;;;;;;;5012203;28;20026;-59
2022/01/31 02:54:46;;;;;;;6.90;2.25;;;;;;;;;;5010492;28;20604;-59
2022/01/31 02:57:12;;;;;;;13.10;2.38;;;;;;;;;;5014044;28;20042;-60
2022/01/31 02:59:38;;;;;;;11.15;2.40;;;;;;;;;;5012554;28;20469;-59
2022/01/31 03:02:05;;;;;;;10.95;2.75;;;;;;;;;;5011823;28;20061;-60
2022/01/31 03:04:32;;;;;;;10.75;2.50;;;;;;;;;;5012304;28;20038;-61
2022/01/31 03:06:58;;;;;;;10.85;2.33;;;;;;;;;;5011359;28;20111;-61
2022/01/31 03:09:23;;;;;;;9.57;2.88;;;;;;;;;;5014270;28;20163;-60
2022/01/31 03:11:49;;;;;;;9.32;2.17;;;;;;;;;;5008879;28;20058;-58
2022/01/31 03:14:19;;;;;;;11.88;2.70;;;;;;;;;;5012945;28;20056;-60
2022/01/31 03:16:45;;;;;;;12.73;2.40;;;;;;;;;;5008539;28;20037;-57
2022/01/31 03:19:12;;;;;;;4.93;2.08;;;;;;;;;;5011174;28;20454;-59
2022/01/31 03:21:38;;;;;;;7.68;2.13;;;;;;;;;;5007984;28;20034;-60
2022/01/31 03:24:05;;;;;;;8.43;2.13;;;;;;;;;;5009056;28;20128;-60
2022/01/31 03:26:30;;;;;;;12.90;2.55;;;;;;;;;;5011542;28;20030;-58
2022/01/31 03:28:56;;;;;;;13.00;2.10;;;;;;;;;;5009887;28;20026;-53
2022/01/31 03:31:22;;;;;;;5.50;2.30;;;;;;;;;;5013715;28;20524;-60
2022/01/31 03:34:04;;;;;;;13.05;1.93;;;;;;;;;;2229907;28;10022706;-50
2022/01/31 03:36:29;;;;;;;8.73;2.28;;;;;;;;;;3629570;28;10001633;-60
2022/01/31 03:38:55;;;;;;;8.57;2.53;;;;;;;;;;5011191;28;20096;-58
2022/01/31 03:41:22;;;;;;;8.27;2.40;;;;;;;;;;5009522;28;20037;-60
2022/01/31 03:43:48;;;;;;;9.18;2.38;;;;;;;;;;5012298;28;20061;-60
2022/01/31 03:46:14;;;;;;;10.15;2.42;;;;;;;;;;5011651;28;20426;-60
2022/01/31 03:48:41;;;;;;;10.65;2.60;;;;;;;;;;4990632;28;20054;-60
2022/01/31 03:51:06;;;;;;;10.40;2.55;;;;;;;;;;5006692;28;20128;-61
2022/01/31 03:53:32;;;;;;;9.73;2.05;;;;;;;;;;5009903;28;20105;-60
2022/01/31 03:55:58;;;;;;;8.82;2.35;;;;;;;;;;5009143;28;20034;-61
2022/01/31 03:58:23;;;;;;;10.38;2.40;;;;;;;;;;5009659;28;20065;-61
2022/01/31 04:00:49;;;;;;;11.18;2.67;;;;;;;;;;5010227;28;20037;-61
2022/01/31 04:03:15;;;;;;;9.85;2.38;;;;;;;;;;5009357;28;20497;-59
2022/01/31 04:05:41;;;;;;;13.88;2.25;;;;;;;;;;5012212;28;20030;-59
2022/01/31 04:08:08;;;;;;;11.10;2.33;;;;;;;;;;5006234;28;20022;-59
2022/01/31 04:10:35;;;;;;;10.90;2.88;;;;;;;;;;5012144;28;20497;-57
2022/01/31 04:13:00;;;;;;;13.40;2.80;;;;;;;;;;5009085;28;20056;-61
2022/01/31 04:15:26;;;;;;;9.18;2.03;;;;;;;;;;5010091;28;20034;-60
2022/01/31 04:17:51;;;;;;;10.30;2.30;;;;;;;;;;5009549;28;20076;-58
2022/01/31 04:20:18;;;;;;;16.70;2.85;;;;;;;;;;5007988;28;20029;-59
2022/01/31 04:22:58;;;;;;;11.80;2.50;;;;;;;;;;4989873;28;20048;-60
2022/01/31 04:25:31;;;;;;;6.03;2.22;;;;;;;;;;5009656;28;20026;-60
2022/01/31 04:28:06;;;;;;;11.80;2.17;;;;;;;;;;5010200;28;20026;-60
2022/01/31 04:30:37;;;;;;;7.90;2.40;;;;;;;;;;5007445;28;20026;-60
2022/01/31 04:33:03;;;;;;;15.43;3.08;;;;;;;;;;5009327;28;20022;-61
2022/01/31 04:35:28;;;;;;;10.45;2.42;;;;;;;;;;5007367;28;20029;-60
2022/01/31 04:37:53;;;;;;;10.95;2.50;;;;;;;;;;4974657;28;20113;-61
2022/01/31 04:40:19;;;;;;;9.55;2.65;;;;;;;;;;5009920;28;20022;-59
2022/01/31 04:42:45;;;;;;;16.55;2.90;;;;;;;;;;5008907;28;20410;-59
2022/01/31 04:45:11;;;;;;;7.78;2.13;;;;;;;;;;5008428;28;20409;-60
2022/01/31 04:47:37;;;;;;;11.52;2.53;;;;;;;;;;4990426;28;20014;-60
2022/01/31 04:50:05;;;;;;;11.50;2.78;;;;;;;;;;5007533;28;20115;-59
2022/01/31 04:52:30;;;;;;;12.98;2.78;;;;;;;;;;5007027;28;20366;-60
2022/01/31 04:54:56;;;;;;;12.82;3.03;;;;;;;;;;5010493;28;20037;-59
2022/01/31 04:57:21;;;;;;;11.63;2.80;;;;;;;;;;5007257;28;20017;-60
2022/01/31 04:59:48;;;;;;;12.95;3.05;;;;;;;;;;5009612;28;20451;-60
2022/01/31 05:02:14;;;;;;;14.10;3.00;;;;;;;;;;4990214;28;20038;-60
2022/01/31 05:04:39;;;;;;;15.77;3.22;;;;;;;;;;5010558;28;20726;-52
2022/01/31 05:07:04;;;;;;;12.50;3.15;;;;;;;;;;5006589;28;20029;-52
2022/01/31 05:09:30;;;;;;;9.20;2.92;;;;;;;;;;5010377;28;20033;-57
2022/01/31 05:11:55;;;;;;;13.30;3.17;;;;;;;;;;5007475;28;20033;-54
2022/01/31 05:14:20;;;;;;;9.95;2.97;;;;;;;;;;5008288;28;20048;-58
2022/01/31 05:16:46;;;;;;;13.65;3.40;;;;;;;;;;5009431;28;20510;-58
2022/01/31 05:19:11;;;;;;;13.65;3.10;;;;;;;;;;5004928;28;20073;-54
2022/01/31 05:21:38;;;;;;;10.55;3.30;;;;;;;;;;4991989;28;20064;-58
2022/01/31 05:24:04;;;;;;;17.55;3.00;;;;;;;;;;5005567;28;20502;-53
2022/01/31 05:26:29;;;;;;;15.00;3.22;;;;;;;;;;5007540;28;20057;-56
2022/01/31 05:28:55;;;;;;;8.13;2.78;;;;;;;;;;5008875;28;20108;-56
2022/01/31 05:31:20;;;;;;;9.30;2.78;;;;;;;;;;5006217;28;20033;-58
2022/01/31 05:33:45;;;;;;;10.15;2.50;;;;;;;;;;4992324;28;20034;-54
2022/01/31 05:36:11;;;;;;;13.05;3.20;;;;;;;;;;5008160;28;20037;-55
2022/01/31 05:38:38;;;;;;;9.60;3.10;;;;;;;;;;5009428;28;20406;-57
2022/01/31 05:41:07;;;;;;;10.30;3.20;;;;;;;;;;4974905;28;20022;-56
2022/01/31 05:43:35;;;;;;;10.55;2.25;;;;;;;;;;327180;28;10022979;-57
2022/01/31 05:46:00;;;;;;;10.32;2.65;;;;;;;;;;5004689;28;20243;-57
2022/01/31 05:48:26;;;;;;;11.55;2.58;;;;;;;;;;5006685;28;20056;-50
2022/01/31 05:50:51;;;;;;;14.43;2.90;;;;;;;;;;5007830;28;21627;-56
2022/01/31 05:53:17;;;;;;;15.45;2.70;;;;;;;;;;5007915;28;20084;-58
2022/01/31 05:55:44;;;;;;;9.63;2.95;;;;;;;;;;5008766;28;20041;-55
2022/01/31 05:58:10;;;;;;;9.65;2.60;;;;;;;;;;5006867;28;20076;-54
2022/01/31 06:00:37;;;;;;;11.40;3.28;;;;;;;;;;5007592;28;20034;-57
2022/01/31 06:03:03;;;;;;;8.02;2.60;;;;;;;;;;5005049;28;20141;-56
2022/01/31 06:05:28;;;;;;;6.05;2.20;;;;;;;;;;5009879;28;20113;-55
2022/01/31 06:07:54;;;;;;;9.00;2.38;;;;;;;;;;5007139;28;20026;-54
2022/01/31 06:10:22;;;;;;;7.07;2.10;;;;;;;;;;5005719;28;20025;-55
2022/01/31 06:12:48;;;;;;;10.75;2.50;;;;;;;;;;5010669;28;20029;-52
2022/01/31 06:15:13;;;;;;;6.18;2.33;;;;;;;;;;4988778;28;20076;-55
2022/01/31 06:17:40;;;;;;;7.90;2.22;;;;;;;;;;5011748;28;20091;-54
2022/01/31 06:20:06;;;;;;;6.22;2.50;;;;;;;;;;5010552;28;20630;-51
2022/01/31 06:22:31;;;;;;;8.90;1.83;;;;;;;;;;4992524;28;20085;-56
2022/01/31 06:24:57;;;;;;;9.82;2.40;;;;;;;;;;5013711;28;20033;-56
2022/01/31 06:27:22;;;;;;;3.67;1.98;;;;;;;;;;5010281;28;20121;-58
2022/01/31 06:29:47;;;;;;;7.75;2.20;;;;;;;;;;5012694;28;20030;-57
2022/01/31 06:32:13;;;;;;;6.60;1.90;;;;;;;;;;5011250;28;20132;-57
2022/01/31 06:34:38;;;;;;;4.43;1.80;;;;;;;;;;5010674;28;20084;-58
2022/01/31 06:37:04;;;;;;;6.88;1.85;;;;;;;;;;5009796;28;20022;-56
2022/01/31 06:39:30;;;;;;;6.53;1.80;;;;;;;;;;5010572;28;20030;-54
2022/01/31 06:41:55;;;;;;;5.43;1.80;;;;;;;;;;5009074;28;20029;-53
2022/01/31 06:44:21;;;;;;;7.00;2.22;;;;;;;;;;5011633;28;20026;-54
2022/01/31 06:46:46;;;;;;;3.85;1.73;;;;;;;;;;5014221;28;20423;-55
2022/01/31 06:49:12;;;;;;;5.32;1.58;;;;;;;;;;5009673;28;20525;-56
2022/01/31 06:51:37;;;;;;;4.55;1.50;;;;;;;;;;5013290;28;20038;-56
2022/01/31 06:54:03;;;;;;;4.55;1.67;;;;;;;;;;5008778;28;20107;-54
2022/01/31 06:56:30;;;;;;;4.82;1.52;;;;;;;;;;5011664;28;20037;-57
2022/01/31 06:58:57;;;;;;;5.32;1.25;;;;;;;;;;5010286;28;20084;-55
2022/01/31 07:01:25;;;;;;;3.15;1.30;;;;;;;;;;5008166;28;20115;-57
2022/01/31 07:03:53;;;;;;;3.17;1.48;;;;;;;;;;5013189;28;20045;-57
2022/01/31 07:06:20;;;;;;;2.65;1.35;;;;;;;;;;5010020;28;20044;-56
2022/01/31 07:08:46;;;;;;;2.00;1.10;;;;;;;;;;5011678;28;20065;-57
2022/01/31 07:11:16;;;;;;;4.05;1.65;;;;;;;;;;5009049;28;20120;-53
2022/01/31 07:13:43;;;;;;;5.18;1.52;;;;;;;;;;5011394;28;20025;-56
2022/01/31 07:16:09;;;;;;;3.83;1.10;;;;;;;;;;5012764;28;20072;-55
2022/01/31 07:18:36;;;;;;;1.67;1.02;;;;;;;;;;5010893;28;20034;-52
2022/01/31 07:21:02;;;;;;;3.47;0.98;;;;;;;;;;5011236;28;20042;-57
2022/01/31 07:23:38;;;;;;;3.95;1.30;;;;;;;;;;5007723;28;20026;-54
2022/01/31 07:26:03;;;;;;;1.88;1.20;;;;;;;;;;5012284;28;20042;-57
2022/01/31 07:28:29;;;;;;;2.10;0.77;;;;;;;;;;5008019;28;20459;-58
2022/01/31 07:30:56;;;;;;;3.17;1.10;;;;;;;;;;5011746;28;20033;-56
2022/01/31 07:33:42;;;;;;;2.21;1.10;;;;;;;;;;2972199;28;10003284;-49
2022/01/31 07:36:07;;;;;;;3.25;0.80;;;;;;;;;;2935982;28;10001069;-55
2022/01/31 07:38:32;;;;;;;2.20;0.80;;;;;;;;;;5008957;28;20026;-56
2022/01/31 07:40:59;;;;;;;3.03;0.75;;;;;;;;;;5008493;28;20048;-57
2022/01/31 07:43:25;;;;;;;2.95;1.08;;;;;;;;;;5009033;28;20069;-55
2022/01/31 07:45:50;;;;;;;2.72;0.80;;;;;;;;;;5007163;28;20033;-56
2022/01/31 07:48:15;;;;;;;2.28;0.82;;;;;;;;;;5011166;28;20034;-57
2022/01/31 07:50:41;;;;;;;1.42;0.80;;;;;;;;;;5008324;28;20026;-56
2022/01/31 07:53:06;;;;;;;1.80;0.80;;;;;;;;;;5011114;28;20030;-54
2022/01/31 07:55:32;;;;;;;1.20;0.63;;;;;;;;;;5009483;28;20120;-55
2022/01/31 07:57:58;;;;;;;2.25;0.70;;;;;;;;;;5010331;28;20042;-56
2022/01/31 08:00:24;;;;;;;3.35;0.80;;;;;;;;;;5009722;28;20097;-52
2022/01/31 08:02:52;;;;;;;7.18;0.90;;;;;;;;;;4993189;28;20120;-58
2022/01/31 08:05:21;;;;;;;5.10;1.10;;;;;;;;;;5010532;28;20471;-57
2022/01/31 08:07:47;;;;;;;3.05;0.82;;;;;;;;;;4994334;28;20076;-56
2022/01/31 08:10:12;;;;;;;2.08;1.00;;;;;;;;;;5008264;28;21137;-53
2022/01/31 08:12:39;;;;;;;1.98;1.08;;;;;;;;;;5008925;28;20030;-57
2022/01/31 08:15:07;;;;;;;3.47;1.02;;;;;;;;;;5010451;28;20026;-57
2022/01/31 08:17:33;;;;;;;2.25;0.95;;;;;;;;;;4992960;28;20755;-57
2022/01/31 08:19:59;;;;;;;1.23;0.93;;;;;;;;;;5007576;28;20108;-57
2022/01/31 08:22:24;;;;;;;4.38;1.00;;;;;;;;;;5008669;28;20046;-55
2022/01/31 08:24:50;;;;;;;3.80;1.40;;;;;;;;;;5008534;28;20030;-56
2022/01/31 08:27:15;;;;;;;1.88;0.95;;;;;;;;;;5009871;28;20037;-56
2022/01/31 08:29:41;;;;;;;4.00;1.10;;;;;;;;;;5009964;28;20113;-53
2022/01/31 08:32:16;;;;;;;3.22;1.10;;;;;;;;;;5009758;28;20109;-55
2022/01/31 08:37:39;;;;;;;3.05;0.90;;;;;;;;;;4953783;28;20148;-57
2022/01/31 08:40:06;;;;;;;3.80;1.48;;;;;;;;;;5009341;28;20113;-57
2022/01/31 08:42:31;;;;;;;3.97;0.90;;;;;;;;;;5008854;28;20085;-57
2022/01/31 08:44:56;;;;;;;2.75;0.70;;;;;;;;;;5008197;28;20033;-54
2022/01/31 08:47:22;;;;;;;4.00;0.98;;;;;;;;;;5010412;28;20025;-54
2022/01/31 08:49:49;;;;;;;1.30;0.80;;;;;;;;;;5008852;28;20090;-56
2022/01/31 08:52:14;;;;;;;1.55;0.75;;;;;;;;;;5010783;28;20022;-57
2022/01/31 08:54:41;;;;;;;2.97;0.80;;;;;;;;;;5010569;28;20402;-56
2022/01/31 08:57:07;;;;;;;4.25;0.90;;;;;;;;;;5009343;28;20026;-55
2022/01/31 08:59:33;;;;;;;4.47;1.10;;;;;;;;;;5008003;28;20029;-57
2022/01/31 09:02:07;;;;;;;1.40;0.63;;;;;;;;;;5007744;28;20052;-56
2022/01/31 09:04:35;;;;;;;4.22;0.80;;;;;;;;;;5007410;28;20075;-56
2022/01/31 09:07:02;;;;;;;3.15;0.65;;;;;;;;;;5009214;28;20109;-55
2022/01/31 09:09:29;;;;;;;1.95;0.70;;;;;;;;;;5009317;28;20033;-54
2022/01/31 09:11:57;;;;;;;1.73;0.77;;;;;;;;;;5009301;28;20030;-58
2022/01/31 09:14:23;;;;;;;2.47;0.70;;;;;;;;;;5008190;28;20081;-55
2022/01/31 09:16:48;;;;;;;5.30;0.90;;;;;;;;;;5009191;28;20053;-56
2022/01/31 09:19:13;;;;;;;3.30;0.60;;;;;;;;;;5007527;28;20033;-57
2022/01/31 09:21:39;;;;;;;5.55;0.80;;;;;;;;;;5011621;28;20034;-58
2022/01/31 09:24:04;;;;;;;6.15;0.70;;;;;;;;;;5005482;28;20018;-55
2022/01/31 09:26:30;;;;;;;4.82;0.77;;;;;;;;;;5011749;28;20049;-55
2022/01/31 09:28:55;;;;;;;1.92;0.65;;;;;;;;;;5010633;28;20120;-54
2022/01/31 09:31:22;;;;;;;4.03;0.95;;;;;;;;;;5006586;28;20033;-53
2022/01/31 09:33:48;;;;;;;3.63;1.00;;;;;;;;;;5009991;28;20120;-56
2022/01/31 09:36:14;;;;;;;1.20;0.60;;;;;;;;;;5006588;28;20030;-56
2022/01/31 09:38:41;;;;;;;5.00;0.70;;;;;;;;;;5007666;28;20449;-57
2022/01/31 09:41:09;;;;;;;2.53;0.73;;;;;;;;;;5003498;28;20022;-57
2022/01/31 09:43:59;;;;;;;3.03;0.70;;;;;;;;;;5009275;28;20057;-57
2022/01/31 09:49:04;;;;;;;6.75;0.60;;;;;;;;;;1718828;28;10023384;-47
2022/01/31 09:51:30;;;;;;;1.88;0.63;;;;;;;;;;3971199;28;10001116;-57
2022/01/31 09:54:00;;;;;;;3.28;0.60;;;;;;;;;;5007153;28;20057;-56
2022/01/31 09:56:33;;;;;;;1.88;0.60;;;;;;;;;;5009522;28;20083;-56
2022/01/31 09:58:59;;;;;;;5.70;0.63;;;;;;;;;;5006135;28;20045;-56
2022/01/31 10:01:36;;;;;;;2.72;0.60;;;;;;;;;;5007985;28;20242;-56
2022/01/31 10:04:07;;;;;;;3.72;0.35;;;;;;;;;;5007047;28;20041;-56
2022/01/31 10:06:38;;;;;;;3.33;0.70;;;;;;;;;;5008777;28;20036;-56
2022/01/31 10:09:07;;;;;;;0.90;0.40;;;;;;;;;;4987069;28;20045;-58
2022/01/31 10:11:41;;;;;;;1.17;0.40;;;;;;;;;;5009989;28;20033;-57
2022/01/31 10:17:05;;;;;;;1.65;0.38;;;;;;;;;;5008108;28;20186;-57
2022/01/31 10:19:38;;;;;;;0.52;0.30;;;;;;;;;;5008084;28;20037;-57
2022/01/31 10:22:07;;;;;;;2.65;0.30;;;;;;;;;;4988832;28;20033;-55
2022/01/31 10:24:35;;;;;;;1.02;0.68;;;;;;;;;;5008270;28;20482;-57
2022/01/31 10:27:11;;;;;;;1.42;0.52;;;;;;;;;;5008802;28;20064;-57
2022/01/31 10:29:37;;;;;;;1.85;0.63;;;;;;;;;;5011006;28;20033;-57
2022/01/31 10:32:10;;;;;;;0.40;0.20;;;;;;;;;;5005990;28;20036;-57
2022/01/31 10:35:01;;;;;;;1.00;0.30;;;;;;;;;;5010740;28;20486;-56
2022/01/31 10:37:30;;;;;;;2.28;0.85;;;;;;;;;;5006203;28;20081;-57
2022/01/31 10:46:05;;;;;;;1.30;0.35;;;;;;;;;;5008223;28;20402;-56
2022/01/31 10:53:40;;;;;;;1.35;0.55;;;;;;;;;;5006480;28;20124;-54
2022/01/31 10:56:05;;;;;;;1.02;0.32;;;;;;;;;;5005421;28;20025;-58
2022/01/31 10:58:30;;;;;;;1.67;0.30;;;;;;;;;;5007926;28;20057;-54
2022/01/31 11:01:11;;;;;;;1.48;0.25;;;;;;;;;;5008565;28;20096;-58
2022/01/31 11:03:37;;;;;;;0.43;0.30;;;;;;;;;;5014288;28;20121;-55
2022/01/31 11:06:06;;;;;;;0.90;0.22;;;;;;;;;;5008712;28;20104;-57
2022/01/31 11:08:31;;;;;;;3.67;0.40;;;;;;;;;;5013723;28;20054;-57
2022/01/31 11:10:58;;;;;;;0.50;0.30;;;;;;;;;;5005892;28;20076;-55
2022/01/31 11:13:25;;;;;;;1.60;0.45;;;;;;;;;;5011370;28;20030;-59
2022/01/31 11:15:52;;;;;;;2.20;0.45;;;;;;;;;;4980136;28;20109;-57
2022/01/31 11:18:18;;;;;;;1.58;0.45;;;;;;;;;;4957319;28;20035;-50
2022/01/31 11:20:44;;;;;;;0.17;0.17;;;;;;;;;;4959876;28;20026;-56
2022/01/31 11:23:12;;;;;;;1.38;0.32;;;;;;;;;;4941166;28;20118;-57
2022/01/31 11:25:41;;;;;;;1.10;0.38;;;;;;;;;;4846865;29;20545;-56
2022/01/31 11:28:10;;;;;;;1.30;0.30;;;;;;;;;;4804706;29;20569;-58
2022/01/31 11:30:36;;;;;;;1.30;0.40;;;;;;;;;;4748233;29;20456;-54
2022/01/31 11:33:02;;;;;;;2.13;0.45;;;;;;;;;;4609396;30;20045;-56
2022/01/31 11:38:05;;;;;;;0.40;0.40;;;;;;;;;;5160665;27;20118;-56
2022/01/31 11:40:30;;;;;;;0.38;0.35;;;;;;;;;;5155798;27;20037;-54
2022/01/31 11:42:56;;;;;;;1.65;0.63;;;;;;;;;;5099186;27;1294927;-57
2022/01/31 11:45:44;;;;;;;0.82;0.15;;;;;;;;;;1291298;28;10022884;-53
2022/01/31 11:48:22;;;;;;;0.20;0.10;;;;;;;;;;4706999;28;10001364;-57
2022/01/31 11:50:53;;;;;;;2.40;0.40;;;;;;;;;;5057127;28;20064;-55
2022/01/31 11:53:33;;;;;;;2.72;0.35;;;;;;;;;;5058082;28;20028;-56
2022/01/31 11:56:08;;;;;;;0.88;0.20;;;;;;;;;;5053055;28;20032;-56
2022/01/31 11:58:42;;;;;;;0.38;0.22;;;;;;;;;;5057883;28;20032;-53
2022/01/31 12:01:08;;;;;;;2.42;0.30;;;;;;;;;;5054437;28;20392;-57
2022/01/31 12:03:35;;;;;;;1.92;0.55;;;;;;;;;;5042030;28;20553;-51
2022/01/31 12:06:10;;;;;;;1.30;0.30;;;;;;;;;;5052461;28;20029;-56
2022/01/31 12:08:41;;;;;;;0.95;0.20;;;;;;;;;;5053443;28;20036;-56
2022/01/31 12:11:23;;;;;;;1.50;0.20;;;;;;;;;;5052362;28;20021;-56
2022/01/31 12:13:53;;;;;;;1.55;0.32;;;;;;;;;;5054255;28;20037;-53
2022/01/31 12:22:01;;;;;;;0.57;0.22;;;;;;;;;;5056037;28;20033;-57
2022/01/31 12:24:41;;;;;;;0.55;0.30;;;;;;;;;;5051936;28;20020;-55
2022/01/31 12:27:13;;;;;;;1.08;0.20;;;;;;;;;;5054122;28;20499;-57
2022/01/31 12:29:50;;;;;;;0.57;0.25;;;;;;;;;;5053881;28;20035;-55
2022/01/31 12:32:36;;;;;;;1.70;0.40;;;;;;;;;;5034040;28;20037;-56
2022/01/31 12:35:07;;;;;;;1.88;0.20;;;;;;;;;;5054669;28;20459;-57
2022/01/31 12:37:40;;;;;;;0.55;0.30;;;;;;;;;;5053159;28;20029;-56
2022/01/31 12:40:40;;;;;;;1.02;0.20;;;;;;;;;;5055346;28;20064;-54
2022/01/31 12:44:04;;;;;;;1.10;0.40;;;;;;;;;;5063604;28;20032;-57
2022/01/31 12:46:14;;;;;;;1.00;0.40;;;;;;;;;;5038667;28;20088;-56
2022/01/31 12:48:40;;;;;;;0.75;0.22;;;;;;;;;;5025510;28;20477;-57
2022/01/31 12:51:08;;;;;;;1.35;0.10;;;;;;;;;;4925506;28;20039;-53
2022/01/31 12:53:42;;;;;;;0.88;0.20;;;;;;;;;;4948401;28;20406;-55
2022/01/31 12:56:26;;;;;;;1.23;0.25;;;;;;;;;;4949632;28;20094;-55
2022/01/31 12:59:12;;;;;;;1.15;0.28;;;;;;;;;;4954288;28;20030;-55
2022/01/31 13:01:50;;;;;;;0.30;0.10;;;;;;;;;;4946714;28;20523;-55
2022/01/31 13:04:24;;;;;;;0.60;0.20;;;;;;;;;;4950474;28;20027;-56
2022/01/31 13:06:52;;;;;;;2.42;0.28;;;;;;;;;;4948103;28;20464;-55
2022/01/31 13:09:29;;;;;;;0.85;0.20;;;;;;;;;;4949527;28;20027;-55
2022/01/31 13:12:06;;;;;;;0.68;0.20;;;;;;;;;;4949021;28;20039;-56
2022/01/31 13:14:35;;;;;;;1.35;0.30;;;;;;;;;;4949653;28;20076;-52
2022/01/31 13:17:08;;;;;;;1.00;0.30;;;;;;;;;;4950613;28;20050;-55
2022/01/31 13:19:36;;;;;;;1.48;0.20;;;;;;;;;;4932841;29;20027;-54
2022/01/31 13:22:10;;;;;;;0.40;0.25;;;;;;;;;;4950018;28;20539;-58
2022/01/31 13:24:39;;;;;;;1.15;0.47;;;;;;;;;;4945618;28;20023;-56
2022/01/31 13:27:06;;;;;;;1.48;0.55;;;;;;;;;;4950369;28;20031;-54
2022/01/31 13:29:36;;;;;;;0.70;0.40;;;;;;;;;;4949595;28;20439;-56
2022/01/31 13:32:23;;;;;;;2.65;1.02;;;;;;;;;;4948622;28;20043;-53
2022/01/31 13:34:55;;;;;;;0.60;0.35;;;;;;;;;;1393304;28;10023226;-54
2022/01/31 13:38:02;;;;;;;1.98;0.70;;;;;;;;;;3941006;28;10001532;-56
2022/01/31 13:40:37;;;;;;;1.08;0.40;;;;;;;;;;4946242;28;20042;-55
2022/01/31 13:43:23;;;;;;;3.03;0.70;;;;;;;;;;4944980;28;20612;-56
2022/01/31 13:48:32;;;;;;;0.40;0.30;;;;;;;;;;4967965;28;20038;-56
2022/01/31 13:51:01;;;;;;;1.02;0.28;;;;;;;;;;4968394;28;20041;-59
2022/01/31 13:53:36;;;;;;;0.20;0.20;;;;;;;;;;4965549;28;20042;-56
2022/01/31 13:56:04;;;;;;;1.35;0.40;;;;;;;;;;4892174;28;20043;-57
2022/01/31 13:58:33;;;;;;;0.85;0.15;;;;;;;;;;4757809;29;20824;-55
2022/01/31 14:00:59;;;;;;;1.58;0.30;;;;;;;;;;4813972;29;20034;-56
2022/01/31 14:03:29;;;;;;;0.40;0.20;;;;;;;;;;4840874;29;20090;-56
2022/01/31 14:06:07;;;;;;;1.33;0.25;;;;;;;;;;4841417;29;20056;-57
2022/01/31 14:08:41;;;;;;;2.15;0.20;;;;;;;;;;4840980;29;20041;-55
2022/01/31 14:11:12;;;;;;;1.63;0.30;;;;;;;;;;4840045;29;20034;-56
2022/01/31 14:13:40;;;;;;;2.53;0.82;;;;;;;;;;4842665;29;20025;-55
2022/01/31 14:16:09;;;;;;;0.60;0.30;;;;;;;;;;4839483;29;20026;-54
2022/01/31 14:18:34;;;;;;;1.45;0.40;;;;;;;;;;4843745;29;20518;-56
2022/01/31 14:21:07;;;;;;;1.80;0.60;;;;;;;;;;4839044;29;20033;-57
2022/01/31 14:23:37;;;;;;;2.45;0.47;;;;;;;;;;4840855;29;20029;-55
2022/01/31 14:26:09;;;;;;;2.10;0.85;;;;;;;;;;4839297;29;20527;-55
2022/01/31 14:28:41;;;;;;;0.95;0.30;;;;;;;;;;4840042;29;20034;-56
2022/01/31 14:31:07;;;;;;;1.58;0.43;;;;;;;;;;4839807;29;20026;-57
2022/01/31 14:33:33;;;;;;;2.95;0.43;;;;;;;;;;4840692;29;20140;-51
2022/01/31 14:36:10;;;;;;;0.52;0.20;;;;;;;;;;4840074;29;20037;-58
2022/01/31 14:38:44;;;;;;;2.95;0.60;;;;;;;;;;4839047;29;20519;-57
2022/01/31 14:41:30;;;;;;;0.35;0.20;;;;;;;;;;4840832;29;20449;-57
2022/01/31 14:47:32;;;;;;;0.55;0.20;;;;;;;;;;4840666;29;20498;-57
2022/01/31 14:49:40;;;;;;;1.35;0.43;;;;;;;;;;4834876;29;20077;-57
2022/01/31 14:52:07;;;;;;;0.60;0.10;;;;;;;;;;4840174;29;20584;-57
2022/01/31 14:54:34;;;;;;;1.00;0.20;;;;;;;;;;4839076;29;20036;-55
2022/01/31 14:57:01;;;;;;;1.05;0.38;;;;;;;;;;4787902;29;1105844;-54
2022/01/31 14:59:26;;;;;;;0.80;0.25;;;;;;;;;;4935937;28;20069;-53
2022/01/31 15:01:52;;;;;;;1.55;0.40;;;;;;;;;;4971010;28;20062;-54
2022/01/31 15:04:20;;;;;;;1.38;0.30;;;;;;;;;;4880145;29;20070;-57
2022/01/31 15:06:46;;;;;;;0.40;0.20;;;;;;;;;;4867696;29;20386;-57
2022/01/31 15:09:12;;;;;;;1.73;0.25;;;;;;;;;;4714410;29;20551;-57
2022/01/31 15:14:16;;;;;;;0.82;0.40;;;;;;;;;;5161220;27;20375;-57
2022/01/31 15:16:42;;;;;;;0.45;0.28;;;;;;;;;;5151747;27;20371;-58
2022/01/31 15:19:07;;;;;;;1.60;0.30;;;;;;;;;;5144029;27;20087;-55
2022/01/31 15:21:34;;;;;;;0.60;0.30;;;;;;;;;;5135563;27;20023;-57
2022/01/31 15:24:03;;;;;;;0.38;0.38;;;;;;;;;;5052543;28;20109;-61